Time;durP1;ratioP1;P1;durP2;ratioP2;P2;SDS_P1;SDS_P2;PMS_P1;PMS_P2;Temp;Humidity;BMP_temperature;BMP_pressure;BME280_temperature;BME280_humidity;BME280_pressure;Samples;Min_cycle;Max_cycle;Signal;HPM_P1;HPM_P2
2023/05/24 00:01:30;;;;;;;18.08;8.63;;;;;;;17.88;61.02;99818.44;5036934;28;20104;-56
2023/05/24 00:03:59;;;;;;;13.90;8.45;;;;;;;17.86;61.11;99806.09;5054262;28;20025;-60
2023/05/24 00:06:26;;;;;;;13.73;9.23;;;;;;;17.84;61.22;99811.66;5053557;28;20032;-57
2023/05/24 00:08:53;;;;;;;10.57;8.35;;;;;;;17.66;61.42;99787.50;5054061;28;20025;-58
2023/05/24 00:11:19;;;;;;;16.48;7.75;;;;;;;17.82;60.26;99815.56;5037046;28;20544;-60
2023/05/24 00:13:45;;;;;;;15.10;8.18;;;;;;;17.78;60.66;99810.50;5053958;28;20021;-54
2023/05/24 00:16:11;;;;;;;18.77;8.65;;;;;;;17.78;60.48;99813.22;5035835;28;20376;-57
2023/05/24 00:18:39;;;;;;;14.43;8.02;;;;;;;17.76;60.65;99809.84;5054225;28;20091;-56
2023/05/24 00:21:08;;;;;;;10.95;6.72;;;;;;;17.84;59.89;99825.19;5054022;28;20033;-57
2023/05/24 00:23:35;;;;;;;6.55;5.65;;;;;;;17.75;59.43;99801.88;5053770;28;20033;-60
2023/05/24 00:26:05;;;;;;;15.77;6.28;;;;;;;17.85;59.59;99816.09;5035941;28;20021;-57
2023/05/24 00:28:30;;;;;;;16.33;6.15;;;;;;;17.59;60.02;99773.78;5053696;28;20112;-58
2023/05/24 00:30:57;;;;;;;17.20;6.75;;;;;;;17.58;60.39;99773.97;5054046;28;20127;-59
2023/05/24 00:33:23;;;;;;;11.85;5.60;;;;;;;17.75;60.30;99800.03;5053986;28;20104;-58
2023/05/24 00:35:53;;;;;;;7.60;5.60;;;;;;;17.75;60.31;99801.88;5035267;28;20021;-57
2023/05/24 00:38:18;;;;;;;15.48;5.85;;;;;;;17.72;59.77;99807.63;5053755;28;20033;-55
2023/05/24 00:40:44;;;;;;;10.82;5.90;;;;;;;17.67;60.25;99801.88;5053664;28;20090;-57
2023/05/24 00:43:09;;;;;;;8.57;5.75;;;;;;;17.61;60.60;99796.16;5053388;28;20349;-59
2023/05/24 00:45:35;;;;;;;11.43;5.53;;;;;;;17.58;60.59;99799.16;5034059;28;20029;-59
2023/05/24 00:48:00;;;;;;;9.20;5.22;;;;;;;17.55;60.54;99794.09;5035885;28;20024;-58
2023/05/24 00:50:26;;;;;;;11.73;6.10;;;;;;;17.41;60.90;99783.97;5035515;28;20090;-59
2023/05/24 00:52:52;;;;;;;8.88;5.60;;;;;;;17.26;60.45;99757.59;5053021;28;20048;-65
2023/05/24 00:55:17;;;;;;;10.30;5.63;;;;;;;17.45;60.64;99788.84;5053079;28;20431;-58
2023/05/24 00:57:43;;;;;;;9.75;5.68;;;;;;;17.45;60.68;99790.75;5052023;28;20047;-59
2023/05/24 01:00:10;;;;;;;8.73;5.40;;;;;;;17.34;60.81;99773.81;5053277;28;20154;-54
2023/05/24 01:02:36;;;;;;;10.43;5.60;;;;;;;17.39;60.54;99775.19;5052984;28;20053;-58
2023/05/24 01:05:03;;;;;;;7.80;5.70;;;;;;;17.26;61.22;99764.88;5034825;28;20449;-56
2023/05/24 01:08:01;;;;;;;8.98;6.07;;;;;;;17.45;61.21;99772.63;5052873;28;20124;-52
2023/05/24 01:10:44;;;;;;;11.18;6.00;;;;;;;17.48;60.94;99768.75;5052773;28;20029;-61
2023/05/24 01:13:10;;;;;;;11.38;5.80;;;;;;;17.45;60.44;99766.38;5053222;28;20057;-58
2023/05/24 01:15:38;;;;;;;7.88;6.05;;;;;;;17.47;60.94;99772.47;5052349;28;20095;-58
2023/05/24 01:18:15;;;;;;;13.15;5.97;;;;;;;17.52;62.12;99770.09;5052525;28;20049;-60
2023/05/24 01:20:42;;;;;;;12.00;6.88;;;;;;;17.51;61.12;99762.97;5052927;28;20037;-57
2023/05/24 01:23:29;;;;;;;11.55;6.50;;;;;;;17.38;61.49;99741.84;5052696;28;20032;-58
2023/05/24 01:26:16;;;;;;;13.35;6.38;;;;;;;17.57;63.60;99777.69;5034775;28;20397;-53
2023/05/24 01:28:43;;;;;;;12.70;5.70;;;;;;;17.44;61.56;99760.09;5052556;28;20428;-53
2023/05/24 01:31:11;;;;;;;12.60;5.70;;;;;;;17.47;60.82;99772.47;5052618;28;20036;-56
2023/05/24 01:33:41;;;;;;;12.65;6.38;;;;;;;17.48;61.03;99755.22;5052219;28;20028;-53
2023/05/24 01:36:07;;;;;;;12.15;6.60;;;;;;;17.48;60.50;99760.63;5052330;28;20029;-58
2023/05/24 01:38:32;;;;;;;12.30;6.15;;;;;;;17.39;60.79;99748.13;5052816;28;20074;-57
2023/05/24 01:41:14;;;;;;;11.63;5.88;;;;;;;17.47;60.67;99762.47;5052175;28;20440;-57
2023/05/24 01:43:47;;;;;;;12.45;6.15;;;;;;;17.50;60.64;99767.56;5052327;28;20049;-58
2023/05/24 01:46:24;;;;;;;11.57;5.97;;;;;;;17.56;60.18;99766.00;5052170;28;20025;-56
2023/05/24 01:49:12;;;;;;;11.23;6.55;;;;;;;17.60;60.40;99761.13;5035103;28;20032;-57
2023/05/24 01:51:52;;;;;;;7.82;5.97;;;;;;;17.68;60.16;99771.09;5051896;28;20025;-56
2023/05/24 01:54:24;;;;;;;11.82;5.75;;;;;;;17.59;59.89;99760.25;5051907;28;20028;-56
2023/05/24 01:56:52;;;;;;;13.02;6.28;;;;;;;17.60;60.21;99761.13;5034729;28;20120;-56
2023/05/24 01:59:20;;;;;;;10.63;6.07;;;;;;;17.59;60.02;99757.53;5016955;28;20042;-57
2023/05/24 02:01:46;;;;;;;11.50;6.20;;;;;;;17.71;59.25;99768.03;5034360;28;20102;-56
2023/05/24 02:04:12;;;;;;;12.05;6.10;;;;;;;17.68;58.92;99757.56;5052009;28;20457;-60
2023/05/24 02:06:37;;;;;;;9.00;5.85;;;;;;;17.68;59.68;99752.13;5034798;28;20036;-57
2023/05/24 02:09:03;;;;;;;12.43;6.03;;;;;;;17.69;59.42;99761.94;5051530;28;20025;-58
2023/05/24 02:11:30;;;;;;;9.13;5.90;;;;;;;17.69;59.23;99753.81;5051201;28;20207;-55
2023/05/24 02:13:55;;;;;;;11.10;5.70;;;;;;;17.44;58.72;99711.38;5052327;28;20467;-59
2023/05/24 02:16:23;;;;;;;10.18;6.70;;;;;;;17.72;58.54;99745.34;5052059;28;20045;-55
2023/05/24 02:18:49;;;;;;;9.13;6.15;;;;;;;17.64;58.92;99763.31;5051453;28;20103;-58
2023/05/24 02:21:15;;;;;;;16.30;6.10;;;;;;;17.63;58.64;99753.50;5034142;28;20045;-57
2023/05/24 02:23:40;;;;;;;11.35;6.05;;;;;;;17.60;58.98;99751.16;5051671;28;20511;-56
2023/05/24 02:26:10;;;;;;;10.25;6.28;;;;;;;17.61;58.98;99749.28;5034685;28;20049;-58
2023/05/24 02:28:36;;;;;;;13.15;6.15;;;;;;;17.64;59.19;99751.63;5052025;28;20033;-58
2023/05/24 02:31:02;;;;;;;8.55;5.80;;;;;;;17.64;58.82;99749.78;5050918;28;20113;-57
2023/05/24 02:33:28;;;;;;;7.88;5.63;;;;;;;17.70;58.39;99755.53;5034121;28;20115;-57
2023/05/24 02:35:55;;;;;;;11.23;6.25;;;;;;;17.71;58.67;99762.63;5052588;28;20036;-57
2023/05/24 02:38:21;;;;;;;8.20;5.30;;;;;;;17.52;58.66;99729.47;5051590;28;20021;-58
2023/05/24 02:40:46;;;;;;;8.15;5.55;;;;;;;17.67;58.48;99755.88;5051127;28;20445;-57
2023/05/24 02:43:12;;;;;;;11.93;5.93;;;;;;;17.60;58.50;99734.91;5051064;28;20025;-59
2023/05/24 02:45:38;;;;;;;9.30;6.20;;;;;;;17.74;58.73;99749.59;5051710;28;20416;-58
2023/05/24 02:48:03;;;;;;;14.77;6.25;;;;;;;17.81;58.71;99751.59;5051663;28;20071;-58
2023/05/24 02:50:29;;;;;;;13.57;6.63;;;;;;;17.88;58.31;99741.75;5051166;28;20036;-64
2023/05/24 02:52:54;;;;;;;14.20;6.65;;;;;;;17.85;58.09;99740.25;5034279;28;20037;-60
2023/05/24 02:55:20;;;;;;;14.00;6.57;;;;;;;17.97;57.61;99729.03;5051600;28;20364;-60
2023/05/24 02:57:46;;;;;;;10.88;6.28;;;;;;;18.00;57.45;99736.81;5051379;28;20176;-60
2023/05/24 03:00:13;;;;;;;15.27;6.60;;;;;;;17.97;57.89;99739.88;5051224;28;20025;-59
2023/05/24 03:02:39;;;;;;;11.20;6.97;;;;;;;18.01;57.78;99730.38;5034155;28;20028;-59
2023/05/24 03:05:06;;;;;;;11.80;6.55;;;;;;;18.13;57.60;99745.28;5051075;28;20031;-60
2023/05/24 03:07:32;;;;;;;12.48;6.53;;;;;;;18.20;57.20;99743.53;5033357;28;20444;-56
2023/05/24 03:09:58;;;;;;;13.75;6.40;;;;;;;18.24;56.63;99727.78;5051488;28;20095;-57
2023/05/24 03:12:23;;;;;;;14.93;6.10;;;;;;;18.24;57.14;99732.34;5050703;28;20040;-58
2023/05/24 03:14:49;;;;;;;8.85;6.15;;;;;;;18.25;56.72;99732.19;5034001;28;20029;-58
2023/05/24 03:17:14;;;;;;;14.55;6.90;;;;;;;18.25;57.30;99734.03;5051390;28;20049;-57
2023/05/24 03:19:40;;;;;;;11.38;6.20;;;;;;;18.18;57.30;99734.75;5050769;28;20186;-56
2023/05/24 03:22:06;;;;;;;7.38;6.30;;;;;;;18.17;57.41;99734.91;5036919;28;20455;-58
2023/05/24 03:24:32;;;;;;;10.02;6.03;;;;;;;18.34;56.80;99735.69;5055308;28;20029;-58
2023/05/24 03:26:57;;;;;;;9.57;5.55;;;;;;;18.47;56.52;99741.38;5055043;28;20025;-57
2023/05/24 03:29:23;;;;;;;9.68;5.78;;;;;;;18.59;55.85;99732.84;5054274;28;20051;-59
2023/05/24 03:31:48;;;;;;;12.95;5.75;;;;;;;18.69;55.16;99736.16;5054755;28;20036;-58
2023/05/24 03:34:14;;;;;;;12.00;6.40;;;;;;;18.84;55.11;99736.25;5055023;28;20119;-58
2023/05/24 03:36:40;;;;;;;10.90;6.00;;;;;;;19.03;54.33;99740.34;5054602;28;20032;-60
2023/05/24 03:39:06;;;;;;;8.73;5.78;;;;;;;19.29;54.05;99741.00;5054223;28;20029;-61
2023/05/24 03:41:32;;;;;;;7.47;5.20;;;;;;;19.58;53.44;99734.81;5037436;28;20036;-64
2023/05/24 03:43:59;;;;;;;9.93;5.50;;;;;;;20.04;52.79;99733.81;5055181;28;20345;-55
2023/05/24 03:46:24;;;;;;;9.52;5.38;;;;;;;20.78;50.51;99717.53;5054503;28;20039;-59
2023/05/24 03:48:50;;;;;;;15.80;5.68;;;;;;;21.14;48.84;99710.34;5053822;28;20029;-58
2023/05/24 03:51:15;;;;;;;6.63;5.50;;;;;;;21.11;48.49;99691.69;5054587;28;20033;-59
2023/05/24 03:53:41;;;;;;;11.60;5.22;;;;;;;21.06;48.59;99701.31;5054416;28;20041;-58
2023/05/24 03:56:06;;;;;;;7.22;5.00;;;;;;;20.90;49.11;99705.13;5054091;28;20380;-53
2023/05/24 03:58:32;;;;;;;7.57;5.65;;;;;;;;;;5054367;28;20056;-55
2023/05/24 04:00:57;;;;;;;8.68;5.35;;;;;;;20.41;50.61;99692.25;5054166;28;20029;-58
2023/05/24 04:03:24;;;;;;;9.93;5.78;;;;;;;20.24;50.97;99692.47;5054238;28;20033;-58
2023/05/24 04:05:51;;;;;;;11.98;5.70;;;;;;;20.13;51.51;99710.09;5053964;28;20037;-55
2023/05/24 04:08:16;;;;;;;14.07;6.43;;;;;;;20.05;51.47;99699.34;5054149;28;20037;-59
2023/05/24 04:10:42;;;;;;;10.00;6.53;;;;;;;19.89;51.82;99700.34;5036422;28;20388;-55
2023/05/24 04:13:07;;;;;;;12.32;6.25;;;;;;;19.85;51.87;99705.31;5054316;28;20091;-60
2023/05/24 04:15:33;;;;;;;13.20;6.45;;;;;;;19.55;52.18;99672.72;5054040;28;20039;-61
2023/05/24 04:17:59;;;;;;;11.15;6.68;;;;;;;19.57;52.48;99708.69;5053962;28;20033;-58
2023/05/24 04:20:26;;;;;;;12.43;6.45;;;;;;;19.56;52.84;99707.00;5036142;28;20377;-53
2023/05/24 04:22:53;;;;;;;12.55;6.70;;;;;;;19.57;52.36;99710.53;5054198;28;20514;-60
2023/05/24 04:25:19;;;;;;;10.35;6.45;;;;;;;19.56;52.79;99711.56;5053717;28;20032;-54
2023/05/24 04:27:49;;;;;;;14.35;7.28;;;;;;;19.50;52.71;99710.44;5053474;28;20040;-58
2023/05/24 04:30:15;;;;;;;11.23;6.18;;;;;;;19.55;52.88;99705.31;5053602;28;20380;-60
2023/05/24 04:32:43;;;;;;;13.88;6.75;;;;;;;19.59;52.63;99716.63;5053433;28;20036;-59
2023/05/24 04:35:09;;;;;;;12.93;6.75;;;;;;;19.72;52.72;99705.13;5036225;28;20053;-55
2023/05/24 04:37:35;;;;;;;10.52;5.82;;;;;;;19.78;52.55;99693.53;5054113;28;20108;-63
2023/05/24 04:40:03;;;;;;;13.20;6.82;;;;;;;19.87;52.66;99686.09;5053439;28;20112;-58
2023/05/24 04:42:30;;;;;;;12.48;6.55;;;;;;;20.11;52.13;99697.72;5053110;28;20037;-57
2023/05/24 04:44:56;;;;;;;9.85;6.50;;;;;;;20.42;51.30;99705.63;5053738;28;20033;-58
2023/05/24 04:47:22;;;;;;;12.40;6.30;;;;;;;20.30;49.68;99629.16;5053244;28;20075;-58
2023/05/24 04:49:48;;;;;;;13.68;7.00;;;;;;;21.12;49.75;99699.69;5035148;28;20119;-56
2023/05/24 04:52:14;;;;;;;10.90;6.78;;;;;;;22.25;46.52;99691.59;5035112;28;20037;-57
2023/05/24 04:54:39;;;;;;;13.18;6.32;;;;;;;24.91;41.00;99688.94;5053203;28;20506;-57
2023/05/24 04:57:05;;;;;;;11.93;5.78;;;;;;;28.04;35.07;99687.06;5053701;28;20032;-56
2023/05/24 04:59:30;;;;;;;10.50;6.07;;;;;;;29.36;31.58;99664.09;5052408;28;20444;-60
2023/05/24 05:01:56;;;;;;;11.48;4.88;;;;;;;31.56;29.04;99694.69;5052802;28;20098;-58
2023/05/24 05:04:21;;;;;;;8.85;5.30;;;;;;;33.97;25.50;99679.00;5053129;28;20104;-58
2023/05/24 05:06:47;;;;;;;10.80;5.38;;;;;;;35.85;22.83;99696.81;5052950;28;20037;-59
2023/05/24 05:09:13;;;;;;;10.57;5.05;;;;;;;34.76;23.82;99700.56;5052363;28;20029;-58
2023/05/24 05:11:39;;;;;;;8.25;5.15;;;;;;;34.05;24.42;99709.00;5035000;28;20456;-59
2023/05/24 05:14:08;;;;;;;7.68;4.60;;;;;;;33.19;26.09;99713.28;5035008;28;20418;-59
2023/05/24 05:16:35;;;;;;;6.65;5.00;;;;;;;32.52;26.23;99721.50;5034860;28;20131;-58
2023/05/24 05:19:03;;;;;;;9.88;5.30;;;;;;;31.72;26.52;99705.88;5052647;28;20033;-60
2023/05/24 05:21:33;;;;;;;6.38;4.70;;;;;;;31.17;27.82;99712.38;5053338;28;20043;-58
2023/05/24 05:23:59;;;;;;;9.30;4.82;;;;;;;30.63;28.75;99685.66;5052335;28;20445;-60
2023/05/24 05:26:29;;;;;;;11.52;5.45;;;;;;;30.46;28.65;99694.84;5052490;28;20436;-60
2023/05/24 05:28:55;;;;;;;11.27;5.63;;;;;;;30.18;28.77;99707.78;5052450;28;20070;-60
2023/05/24 05:31:21;;;;;;;10.27;5.05;;;;;;;30.32;28.99;99696.31;5052127;28;20103;-57
2023/05/24 05:33:47;;;;;;;5.90;4.80;;;;;;;30.76;28.50;99712.84;5052236;28;20468;-59
2023/05/24 05:36:12;;;;;;;6.45;4.80;;;;;;;30.52;28.50;99723.34;5052418;28;20036;-61
2023/05/24 05:38:38;;;;;;;10.43;4.85;;;;;;;30.02;29.75;99719.72;5052359;28;20025;-64
2023/05/24 05:41:04;;;;;;;7.97;5.35;;;;;;;29.39;30.51;99712.41;5052050;28;20056;-61
2023/05/24 05:43:30;;;;;;;9.75;5.40;;;;;;;28.51;31.50;99683.31;5051317;28;20468;-59
2023/05/24 05:45:56;;;;;;;7.35;4.85;;;;;;;28.23;31.20;99720.78;5051992;28;20029;-58
2023/05/24 05:48:21;;;;;;;7.50;5.45;;;;;;;27.86;31.64;99716.41;5051829;28;20504;-60
2023/05/24 05:50:47;;;;;;;11.23;5.70;;;;;;;27.67;32.27;99709.34;5030428;28;20143;-58
2023/05/24 05:53:14;;;;;;;14.43;5.57;;;;;;;27.77;32.18;99709.59;5032115;28;20124;-55
2023/05/24 05:55:40;;;;;;;8.70;5.43;;;;;;;28.28;31.45;99698.03;5032699;28;20033;-54
2023/05/24 05:58:05;;;;;;;13.23;6.07;;;;;;;28.69;30.61;99701.53;5032995;28;20533;-59
2023/05/24 06:00:31;;;;;;;12.10;5.32;;;;;;;28.81;30.04;99693.25;5046815;28;20040;-60
2023/05/24 06:02:56;;;;;;;11.82;5.28;;;;;;;29.20;29.52;99693.38;5052016;28;20094;-58
2023/05/24 06:05:22;;;;;;;9.13;5.05;;;;;;;30.66;28.19;99696.19;5052457;28;20029;-59
2023/05/24 06:07:47;;;;;;;5.95;4.75;;;;;;;30.93;27.09;99678.72;5052389;28;20361;-61
2023/05/24 06:10:13;;;;;;;9.85;5.82;;;;;;;30.63;27.42;99691.19;5051979;28;20116;-61
2023/05/24 06:12:39;;;;;;;14.35;5.82;;;;;;;29.79;28.83;99699.50;5047794;28;20116;-64
2023/05/24 06:15:06;;;;;;;9.70;5.88;;;;;;;29.11;29.74;99714.19;5051302;28;20155;-59
2023/05/24 06:17:33;;;;;;;13.13;5.97;;;;;;;28.38;31.56;99708.41;5052221;28;20464;-60
2023/05/24 06:19:59;;;;;;;14.48;6.10;;;;;;;27.61;32.87;99706.50;5052208;28;20036;-55
2023/05/24 06:22:28;;;;;;;13.25;6.63;;;;;;;26.93;33.86;99694.94;5034261;28;20035;-58
2023/05/24 06:24:54;;;;;;;13.95;6.28;;;;;;;26.29;35.11;99684.44;5051551;28;20032;-61
2023/05/24 06:27:20;;;;;;;11.10;7.00;;;;;;;25.76;36.07;99687.56;5052028;28;20029;-59
2023/05/24 06:29:45;;;;;;;11.23;6.72;;;;;;;25.12;37.46;99686.88;5051318;28;20029;-59
2023/05/24 06:32:11;;;;;;;12.80;6.38;;;;;;;24.68;38.41;99649.25;5051796;28;20048;-64
2023/05/24 06:34:36;;;;;;;9.80;7.13;;;;;;;24.91;37.76;99680.72;5051709;28;20061;-59
2023/05/24 06:37:02;;;;;;;13.80;6.57;;;;;;;24.90;37.99;99687.25;5033977;28;20423;-59
2023/05/24 06:39:28;;;;;;;15.70;6.72;;;;;;;24.90;38.37;99679.88;5051103;28;20047;-59
2023/05/24 06:41:54;;;;;;;14.68;6.32;;;;;;;25.07;38.36;99671.94;5051725;28;20452;-59
2023/05/24 06:44:20;;;;;;;11.68;6.55;;;;;;;25.50;36.60;99689.50;5051227;28;20036;-60
2023/05/24 06:46:46;;;;;;;13.55;6.07;;;;;;;25.53;36.51;99690.13;5034329;28;20032;-60
2023/05/24 06:49:12;;;;;;;10.35;6.63;;;;;;;25.69;36.49;99691.44;5051550;28;20488;-64
2023/05/24 06:51:37;;;;;;;7.85;5.82;;;;;;;25.72;35.46;99663.56;5051984;28;20112;-59
2023/05/24 06:54:03;;;;;;;10.07;5.07;;;;;;;26.04;35.86;99683.44;5033894;28;20127;-58
2023/05/24 06:56:28;;;;;;;9.48;5.47;;;;;;;26.59;34.99;99684.41;5053384;28;20413;-59
2023/05/24 06:58:55;;;;;;;11.30;5.75;;;;;;;27.59;32.68;99670.16;5038146;28;20044;-59
2023/05/24 07:01:21;;;;;;;14.27;6.50;;;;;;;28.26;31.92;99679.00;5037803;28;20124;-59
2023/05/24 07:03:47;;;;;;;10.23;6.78;;;;;;;28.12;31.79;99694.94;5055288;28;20025;-58
2023/05/24 07:06:14;;;;;;;10.82;6.57;;;;;;;27.79;32.51;99689.00;5055087;28;20073;-62
2023/05/24 07:08:42;;;;;;;14.27;6.28;;;;;;;27.69;33.30;99685.19;5037966;28;20397;-59
2023/05/24 07:11:08;;;;;;;14.93;7.07;;;;;;;27.84;33.13;99682.78;5054978;28;20035;-59
2023/05/24 07:13:34;;;;;;;11.75;6.10;;;;;;;27.75;33.00;99690.56;5054889;28;20360;-59
2023/05/24 07:16:00;;;;;;;8.93;5.20;;;;;;;27.56;33.24;99681.63;5037495;28;20504;-61
2023/05/24 07:18:26;;;;;;;9.20;5.68;;;;;;;27.30;33.44;99694.75;5055046;28;20033;-60
2023/05/24 07:20:51;;;;;;;8.73;4.60;;;;;;;27.13;33.26;99683.63;5021127;28;20037;-60
2023/05/24 07:23:17;;;;;;;6.85;4.10;;;;;;;27.18;32.65;99658.16;5055404;28;20057;-61
2023/05/24 07:25:42;;;;;;;12.15;4.80;;;;;;;27.50;32.78;99694.38;5051017;28;20041;-61
2023/05/24 07:28:08;;;;;;;9.20;5.18;;;;;;;27.44;32.70;99700.84;5048930;28;20044;-61
2023/05/24 07:30:34;;;;;;;9.45;5.82;;;;;;;27.42;32.89;99692.00;5054228;28;20031;-62
2023/05/24 07:33:00;;;;;;;13.80;6.45;;;;;;;27.48;33.04;99699.28;5053989;28;20452;-62
2023/05/24 07:35:28;;;;;;;13.70;6.22;;;;;;;27.72;32.43;99701.22;5054099;28;20029;-61
2023/05/24 07:37:53;;;;;;;9.60;5.90;;;;;;;27.52;32.39;99674.94;5047328;28;20492;-61
2023/05/24 07:40:19;;;;;;;11.90;6.15;;;;;;;27.47;33.07;99705.03;5039478;28;20029;-61
2023/05/24 07:42:46;;;;;;;13.35;6.13;;;;;;;27.06;33.51;99694.72;5054865;28;20036;-62
2023/05/24 07:45:12;;;;;;;14.70;6.28;;;;;;;26.78;34.45;99707.19;5054528;28;20036;-61
2023/05/24 07:47:38;;;;;;;11.98;6.50;;;;;;;26.59;35.06;99698.13;5054487;28;20060;-61
2023/05/24 07:50:04;;;;;;;12.02;7.03;;;;;;;26.45;34.95;99710.41;5036986;28;20136;-60
2023/05/24 07:52:30;;;;;;;14.75;6.53;;;;;;;26.11;35.53;99704.44;5054174;28;20037;-64
2023/05/24 07:54:56;;;;;;;11.80;6.15;;;;;;;25.93;36.02;99701.50;5036218;28;20529;-60
2023/05/24 07:57:21;;;;;;;12.65;6.93;;;;;;;26.00;36.31;99708.78;5054327;28;20418;-60
2023/05/24 07:59:47;;;;;;;8.93;5.43;;;;;;;26.21;35.72;99697.38;5054108;28;20028;-61
2023/05/24 08:02:15;;;;;;;8.20;5.65;;;;;;;26.54;34.90;99703.50;5053945;28;20029;-62
2023/05/24 08:04:42;;;;;;;8.35;5.40;;;;;;;26.68;34.26;99704.16;5053956;28;20025;-60
2023/05/24 08:07:08;;;;;;;11.00;5.68;;;;;;;26.82;34.27;99712.19;5053244;28;20075;-60
2023/05/24 08:09:35;;;;;;;12.32;5.75;;;;;;;26.86;34.09;99711.50;5053833;28;20064;-61
2023/05/24 08:12:03;;;;;;;13.15;5.82;;;;;;;26.85;33.95;99711.75;5036016;28;20056;-62
2023/05/24 08:14:29;;;;;;;11.38;5.25;;;;;;;26.96;34.11;99694.47;5051618;28;20072;-64
2023/05/24 08:16:54;;;;;;;14.98;5.85;;;;;;;27.32;33.74;99694.50;5052858;28;20045;-62
2023/05/24 08:19:20;;;;;;;14.52;5.75;;;;;;;27.86;32.65;99702.66;5052962;28;20041;-61
2023/05/24 08:21:46;;;;;;;14.90;5.40;;;;;;;28.28;31.91;99687.84;5053489;28;20036;-67
2023/05/24 08:24:12;;;;;;;12.70;6.38;;;;;;;28.77;31.42;99708.59;5053427;28;20029;-60
2023/05/24 08:26:37;;;;;;;10.65;5.90;;;;;;;29.20;30.85;99698.06;5051511;28;20115;-66
2023/05/24 08:29:03;;;;;;;10.90;5.82;;;;;;;29.62;30.18;99700.38;5053014;28;20102;-62
2023/05/24 08:31:32;;;;;;;11.68;6.43;;;;;;;29.74;30.10;99707.72;5053353;28;20025;-61
2023/05/24 08:33:58;;;;;;;12.38;5.90;;;;;;;29.61;29.81;99704.22;5053087;28;20170;-62
2023/05/24 08:36:23;;;;;;;16.25;5.40;;;;;;;29.48;30.08;99705.41;5035418;28;20116;-62
2023/05/24 08:38:49;;;;;;;11.35;5.53;;;;;;;29.15;30.06;99695.19;5052317;28;20037;-65
2023/05/24 08:41:15;;;;;;;10.68;5.50;;;;;;;28.94;31.00;99705.91;5051686;28;20415;-63
2023/05/24 08:43:42;;;;;;;14.00;6.57;;;;;;;28.64;31.44;99709.72;5051489;28;20032;-62
2023/05/24 08:46:08;;;;;;;10.52;6.78;;;;;;;28.26;31.91;99713.97;5017371;28;20033;-62
2023/05/24 08:48:43;;;;;;;10.43;6.10;;;;;;;28.04;32.61;99709.91;5051865;28;20411;-65
2023/05/24 08:51:09;;;;;;;;;;;;;;;28.46;32.57;99697.84;5051875;28;20086;-62
2023/05/24 08:53:37;;;;;;;10.73;5.80;;;;;;;27.59;33.07;99707.81;5052322;28;19913;-62
2023/05/24 08:56:05;;;;;;;14.02;6.32;;;;;;;27.10;34.07;99711.56;5051364;28;20025;-63
2023/05/24 08:58:31;;;;;;;12.60;6.15;;;;;;;26.76;34.84;99708.47;5052249;28;20116;-61
2023/05/24 09:00:57;;;;;;;11.57;6.07;;;;;;;26.48;35.18;99716.25;5049369;28;20029;-63
2023/05/24 09:03:23;;;;;;;12.55;6.72;;;;;;;26.20;35.90;99714.09;5053228;28;20039;-62
2023/05/24 09:05:49;;;;;;;11.43;5.78;;;;;;;26.07;35.85;99709.56;5034942;28;20123;-62
2023/05/24 09:08:17;;;;;;;15.95;6.55;;;;;;;25.90;36.34;99703.84;5052588;28;20456;-67
2023/05/24 09:10:43;;;;;;;10.80;5.55;;;;;;;25.53;36.64;99674.50;5052387;28;20025;-60
2023/05/24 09:13:10;;;;;;;14.73;5.90;;;;;;;25.69;36.09;99713.34;5034929;28;20071;-60
2023/05/24 09:15:36;;;;;;;11.90;6.03;;;;;;;25.64;35.89;99701.16;5051137;28;20037;-63
2023/05/24 09:18:02;;;;;;;14.10;6.55;;;;;;;25.76;35.91;99700.41;5051326;28;20060;-60
2023/05/24 09:20:29;;;;;;;9.52;6.03;;;;;;;25.98;35.87;99697.22;5051406;28;20410;-62
2023/05/24 09:22:56;;;;;;;11.63;6.22;;;;;;;26.23;35.34;99706.22;5033035;28;20083;-61
2023/05/24 09:25:22;;;;;;;11.35;5.60;;;;;;;26.63;35.00;99696.59;5050448;28;20021;-61
2023/05/24 09:27:50;;;;;;;9.95;5.95;;;;;;;27.08;33.86;99703.56;5046343;28;20052;-71
2023/05/24 09:30:16;;;;;;;11.50;5.05;;;;;;;27.48;32.91;99712.19;5051143;28;20444;-63
2023/05/24 09:32:57;;;;;;;8.85;5.50;;;;;;;27.86;32.80;99716.41;5049817;28;20037;-63
2023/05/24 09:35:22;;;;;;;12.75;5.93;;;;;;;27.59;32.84;99705.91;5049952;28;20061;-61
2023/05/24 09:37:48;;;;;;;10.90;5.55;;;;;;;27.54;32.44;99700.28;5052481;28;20053;-62
2023/05/24 09:40:21;;;;;;;14.77;5.35;;;;;;;27.71;32.97;99716.03;5052499;28;20083;-61
2023/05/24 09:42:50;;;;;;;11.52;4.90;;;;;;;27.85;32.21;99706.47;5031276;28;20029;-63
2023/05/24 09:45:16;;;;;;;11.93;5.82;;;;;;;28.03;31.91;99712.91;5040561;28;20369;-61
2023/05/24 09:47:43;;;;;;;10.82;5.22;;;;;;;28.09;31.25;99714.69;5035186;28;20033;-62
2023/05/24 09:50:16;;;;;;;10.02;5.43;;;;;;;28.05;31.81;99694.25;5052392;28;20132;-60
2023/05/24 09:52:42;;;;;;;12.68;5.13;;;;;;;28.07;31.82;99708.59;5051300;28;20033;-61
2023/05/24 09:55:14;;;;;;;14.57;5.50;;;;;;;28.11;31.59;99712.53;5046678;28;20542;-65
2023/05/24 09:57:41;;;;;;;17.00;5.95;;;;;;;27.99;31.91;99700.72;5051163;28;20562;-65
2023/05/24 10:00:15;;;;;;;12.75;6.00;;;;;;;27.99;31.91;99717.22;5050639;28;20025;-60
2023/05/24 10:02:41;;;;;;;11.48;5.53;;;;;;;28.04;32.11;99720.09;5049902;28;20060;-60
2023/05/24 10:05:10;;;;;;;10.23;4.93;;;;;;;28.07;31.82;99714.09;5049910;28;20035;-61
2023/05/24 10:07:36;;;;;;;10.30;5.28;;;;;;;27.69;31.33;99685.19;5050154;28;20326;-59
2023/05/24 10:10:04;;;;;;;11.45;5.45;;;;;;;27.68;31.87;99716.53;5031301;28;20364;-59
2023/05/24 10:12:33;;;;;;;11.57;5.25;;;;;;;27.76;32.35;99719.75;5048259;28;20068;-58
2023/05/24 10:14:59;;;;;;;10.68;5.80;;;;;;;27.88;32.33;99713.41;5049662;28;20526;-60
2023/05/24 10:17:27;;;;;;;12.77;6.15;;;;;;;27.77;32.04;99693.09;5051779;28;20068;-60
2023/05/24 10:19:52;;;;;;;12.45;5.38;;;;;;;27.77;32.45;99687.59;5051410;28;20040;-60
2023/05/24 10:22:21;;;;;;;10.88;5.57;;;;;;;27.87;32.30;99733.75;5051806;28;20037;-59
2023/05/24 10:24:50;;;;;;;14.50;6.40;;;;;;;27.59;32.97;99730.66;5051666;28;20052;-60
2023/05/24 10:27:22;;;;;;;12.43;5.72;;;;;;;27.17;32.97;99697.72;5046226;28;20028;-60
2023/05/24 10:30:00;;;;;;;12.73;6.05;;;;;;;27.04;33.35;99709.75;5048481;28;20039;-61
2023/05/24 10:32:31;;;;;;;12.23;5.30;;;;;;;26.91;33.59;99713.56;5055008;28;20122;-64
2023/05/24 10:34:59;;;;;;;12.77;5.63;;;;;;;27.14;33.22;99740.25;5034557;28;20030;-59
2023/05/24 10:37:26;;;;;;;16.13;5.68;;;;;;;27.08;33.42;99725.56;5035589;28;20119;-60
2023/05/24 10:39:52;;;;;;;10.07;5.43;;;;;;;27.15;33.19;99744.69;5043893;28;20181;-61
2023/05/24 10:42:18;;;;;;;15.48;5.82;;;;;;;27.11;33.16;99726.16;5055219;28;20025;-59
2023/05/24 10:44:44;;;;;;;8.50;5.18;;;;;;;27.18;33.18;99729.63;5054929;28;20035;-63
2023/05/24 10:47:11;;;;;;;15.13;5.45;;;;;;;27.22;33.83;99728.91;5037348;28;20452;-60
2023/05/24 10:49:56;;;;;;;8.38;4.95;;;;;;;27.26;33.39;99736.69;5053497;28;20032;-59
2023/05/24 10:52:33;;;;;;;6.93;4.97;;;;;;;27.11;33.87;99726.16;5055317;28;20092;-65
2023/05/24 10:55:08;;;;;;;10.65;5.47;;;;;;;26.78;34.21;99720.06;5055204;28;20044;-60
2023/05/24 10:57:35;;;;;;;14.10;5.45;;;;;;;26.48;34.47;99727.22;5055114;28;20037;-61
2023/05/24 11:00:19;;;;;;;6.43;4.82;;;;;;;26.35;34.71;99710.94;5054411;28;20029;-61
2023/05/24 11:02:48;;;;;;;11.32;5.22;;;;;;;26.28;34.95;99752.19;5050490;28;20033;-61
2023/05/24 11:05:14;;;;;;;7.88;4.20;;;;;;;26.03;35.36;99738.50;5054739;28;20043;-61
2023/05/24 11:07:43;;;;;;;8.15;4.55;;;;;;;25.94;35.49;99733.34;5053577;28;20428;-62
2023/05/24 11:10:28;;;;;;;11.00;5.18;;;;;;;25.98;35.76;99757.56;5053552;28;20135;-59
2023/05/24 11:13:01;;;;;;;9.68;4.03;;;;;;;25.92;35.43;99743.69;5029376;28;20033;-58
2023/05/24 11:15:28;;;;;;;11.75;5.15;;;;;;;25.90;35.71;99748.56;5035390;28;20515;-58
2023/05/24 11:18:11;;;;;;;10.68;4.55;;;;;;;26.08;35.67;99755.16;5035613;28;20471;-59
2023/05/24 11:20:37;;;;;;;9.23;4.22;;;;;;;25.93;35.64;99742.63;5045769;28;20091;-58
2023/05/24 11:23:06;;;;;;;11.35;5.38;;;;;;;25.77;35.74;99755.03;5055456;28;20378;-62
2023/05/24 11:25:32;;;;;;;9.23;4.95;;;;;;;25.54;36.11;99752.09;5054719;28;20112;-62
2023/05/24 11:28:00;;;;;;;10.00;4.80;;;;;;;25.36;36.59;99757.28;5050436;28;20113;-63
2023/05/24 11:30:25;;;;;;;12.13;5.10;;;;;;;25.24;36.82;99745.34;5035637;28;20025;-61